createdAt,value
2019-01-27T00:01:13.810Z,93.80
2019-01-27T00:03:44.092Z,93.60
2019-01-27T00:06:13.970Z,93.70
2019-01-27T00:08:43.834Z,93.70
2019-01-27T00:11:13.599Z,93.60
2019-01-27T00:13:43.277Z,93.90
2019-01-27T00:16:12.921Z,93.70
2019-01-27T00:18:42.670Z,93.60
2019-01-27T00:21:12.549Z,93.60
2019-01-27T00:23:42.404Z,93.70
2019-01-27T00:26:13.142Z,93.70
2019-01-27T00:28:42.748Z,93.70
2019-01-27T00:31:13.001Z,93.90
2019-01-27T00:33:42.692Z,93.70
2019-01-27T00:36:12.389Z,93.90
2019-01-27T00:38:42.235Z,94.50
2019-01-27T00:41:11.937Z,94.10
2019-01-27T00:43:41.545Z,94.10
2019-01-27T00:46:11.408Z,94.30
2019-01-27T00:48:41.349Z,94.30
2019-01-27T00:51:10.981Z,94.30
2019-01-27T00:53:40.596Z,94.20
2019-01-27T00:56:10.301Z,94.30
2019-01-27T00:58:40.013Z,94.40
2019-01-27T01:01:09.832Z,94.40
2019-01-27T01:03:39.869Z,94.30
2019-01-27T01:06:09.587Z,94.20
2019-01-27T01:08:39.272Z,94.00
2019-01-27T01:11:08.887Z,94.10
2019-01-27T01:13:38.794Z,94.20
2019-01-27T01:16:08.560Z,94.00
2019-01-27T01:18:38.327Z,94.20
2019-01-27T01:21:08.249Z,93.90
2019-01-27T01:23:38.132Z,94.10
2019-01-27T01:26:08.093Z,94.10
2019-01-27T01:28:37.759Z,94.10
2019-01-27T01:31:07.623Z,94.00
2019-01-27T01:33:37.708Z,94.00
2019-01-27T01:36:07.525Z,93.80
2019-01-27T01:38:37.251Z,93.90
2019-01-27T01:41:06.946Z,94.20
2019-01-27T01:43:36.644Z,94.10
2019-01-27T01:46:06.640Z,94.10
2019-01-27T01:48:36.488Z,94.30
2019-01-27T01:51:06.329Z,94.20
2019-01-27T01:53:35.971Z,94.20
2019-01-27T01:56:05.727Z,94.20
2019-01-27T01:58:35.350Z,94.30
2019-01-27T02:01:05.581Z,94.60
2019-01-27T02:03:35.501Z,94.30
2019-01-27T02:06:06.143Z,94.40
2019-01-27T02:08:35.769Z,94.30
2019-01-27T02:11:06.005Z,94.40
2019-01-27T02:13:35.976Z,94.40
2019-01-27T02:16:09.757Z,94.40
2019-01-27T02:18:40.297Z,94.40
2019-01-27T02:21:10.140Z,94.40
2019-01-27T02:23:39.982Z,94.30
2019-01-27T02:26:09.981Z,94.40
2019-01-27T02:28:39.672Z,94.20
2019-01-27T02:31:09.600Z,94.20
2019-01-27T02:33:39.529Z,94.20
2019-01-27T02:36:09.186Z,94.20
2019-01-27T02:38:38.811Z,94.10
2019-01-27T02:41:08.437Z,94.10
2019-01-27T02:43:38.147Z,94.20
2019-01-27T02:46:07.840Z,94.10
2019-01-27T02:48:37.461Z,94.20
2019-01-27T02:51:07.377Z,94.50
2019-01-27T02:53:37.307Z,94.20
2019-01-27T02:56:07.098Z,94.10
2019-01-27T02:58:36.700Z,94.00
2019-01-27T03:01:06.634Z,94.30
2019-01-27T03:03:36.460Z,94.10
2019-01-27T03:06:37.976Z,94.00
2019-01-27T03:09:16.697Z,94.00
2019-01-27T03:11:52.141Z,94.20
2019-01-27T03:14:22.463Z,93.80
2019-01-27T03:16:53.649Z,94.00
2019-01-27T03:19:23.514Z,93.90
2019-01-27T03:21:53.215Z,93.90
2019-01-27T03:24:22.900Z,93.80
2019-01-27T03:26:52.877Z,94.00
2019-01-27T03:29:22.496Z,93.90
2019-01-27T03:31:52.192Z,93.90
2019-01-27T03:34:21.887Z,93.80
2019-01-27T03:36:51.656Z,93.90
2019-01-27T03:39:21.606Z,93.80
2019-01-27T03:41:51.293Z,93.70
2019-01-27T03:44:20.986Z,93.70
2019-01-27T03:46:50.684Z,93.70
2019-01-27T03:49:20.608Z,93.60
2019-01-27T03:51:50.224Z,93.80
2019-01-27T03:54:19.833Z,93.70
2019-01-27T03:56:49.473Z,93.50
2019-01-27T03:59:19.085Z,93.70
2019-01-27T04:01:48.760Z,93.60
2019-01-27T04:04:18.474Z,93.80
2019-01-27T04:06:48.238Z,93.70
2019-01-27T04:09:17.862Z,93.60
2019-01-27T04:11:47.486Z,93.60
2019-01-27T04:14:17.097Z,93.70
2019-01-27T04:16:46.718Z,93.80
2019-01-27T04:19:16.464Z,93.70
2019-01-27T04:21:47.050Z,93.70
2019-01-27T04:24:16.923Z,93.70
2019-01-27T04:26:46.605Z,93.90
2019-01-27T04:29:16.243Z,93.70
2019-01-27T04:31:45.928Z,93.60
2019-01-27T04:34:15.550Z,93.50
2019-01-27T04:36:45.168Z,93.30
2019-01-27T04:39:14.897Z,93.40
2019-01-27T04:41:44.589Z,93.40
2019-01-27T04:44:14.217Z,93.30
2019-01-27T04:46:43.835Z,93.30
2019-01-27T04:49:13.743Z,93.30
2019-01-27T04:51:43.361Z,93.10
2019-01-27T04:54:13.315Z,93.40
2019-01-27T04:56:42.920Z,93.30
2019-01-27T04:59:12.552Z,93.50
2019-01-27T05:01:42.485Z,93.40
2019-01-27T05:04:24.446Z,93.40
2019-01-27T05:06:54.063Z,93.50
2019-01-27T05:09:24.653Z,93.40
2019-01-27T05:11:54.675Z,93.40
2019-01-27T05:14:24.303Z,93.40
2019-01-27T05:16:53.921Z,93.20
2019-01-27T05:19:23.537Z,93.30
2019-01-27T05:21:53.297Z,93.30
2019-01-27T05:24:23.026Z,93.30
2019-01-27T05:26:52.951Z,93.20
2019-01-27T05:29:22.583Z,93.20
2019-01-27T05:31:52.484Z,93.40
2019-01-27T05:34:22.105Z,93.10
2019-01-27T05:36:51.798Z,93.20
2019-01-27T05:39:21.437Z,93.20
2019-01-27T05:41:51.348Z,93.00
2019-01-27T05:44:20.982Z,93.20
2019-01-27T05:46:50.609Z,93.30
2019-01-27T05:49:20.513Z,93.40
2019-01-27T05:51:50.141Z,93.30
2019-01-27T05:54:20.228Z,93.30
2019-01-27T05:56:56.484Z,93.20
2019-01-27T05:59:21.340Z,93.20
2019-01-27T06:01:50.971Z,93.10
2019-01-27T06:04:21.069Z,93.40
2019-01-27T06:06:51.021Z,93.30
2019-01-27T06:09:20.645Z,93.40
2019-01-27T06:11:50.268Z,93.50
2019-01-27T06:14:19.897Z,93.40
2019-01-27T06:16:49.565Z,93.40
2019-01-27T06:19:19.327Z,93.40
2019-01-27T06:21:48.978Z,93.40
2019-01-27T06:24:18.821Z,93.40
2019-01-27T06:26:48.445Z,93.30
2019-01-27T06:29:18.415Z,93.10
2019-01-27T06:31:48.049Z,93.30
2019-01-27T06:34:19.299Z,93.20
2019-01-27T06:36:49.000Z,93.30
2019-01-27T06:39:18.653Z,93.00
2019-01-27T06:41:48.521Z,93.30
2019-01-27T06:44:18.197Z,93.20
2019-01-27T06:46:47.817Z,93.30
2019-01-27T06:49:17.423Z,93.60
2019-01-27T06:51:47.053Z,93.80
2019-01-27T06:54:16.969Z,93.40
2019-01-27T06:56:46.598Z,93.30
2019-01-27T06:59:22.937Z,93.40
2019-01-27T07:02:10.288Z,93.40
2019-01-27T07:05:02.838Z,93.40
2019-01-27T07:07:50.552Z,93.50
2019-01-27T07:10:36.112Z,93.50
2019-01-27T07:13:27.034Z,93.60
2019-01-27T07:16:05.509Z,93.50
2019-01-27T07:19:00.421Z,93.60
2019-01-27T07:21:43.139Z,93.40
2019-01-27T07:24:34.865Z,93.60
2019-01-27T07:27:23.845Z,93.60
2019-01-27T07:30:11.977Z,93.60
2019-01-27T07:32:55.973Z,93.50
2019-01-27T07:35:44.524Z,93.50
2019-01-27T07:38:33.342Z,93.50
2019-01-27T07:41:24.344Z,93.30
2019-01-27T07:44:12.119Z,93.50
2019-01-27T07:46:51.308Z,93.40
2019-01-27T07:49:46.273Z,93.40
2019-01-27T07:52:37.825Z,93.60
2019-01-27T07:55:26.760Z,93.40
2019-01-27T07:58:21.421Z,93.20
2019-01-27T08:00:56.353Z,93.30
2019-01-27T08:03:44.118Z,93.10
2019-01-27T08:06:28.849Z,93.40
2019-01-27T08:09:13.028Z,93.30
2019-01-27T08:12:02.270Z,92.90
2019-01-27T08:14:51.778Z,93.20
2019-01-27T08:17:37.037Z,93.30
2019-01-27T08:20:24.108Z,93.30
2019-01-27T08:23:04.412Z,93.40
2019-01-27T08:25:43.240Z,93.30
2019-01-27T08:28:31.059Z,93.30
2019-01-27T08:31:07.155Z,93.30
2019-01-27T08:33:55.653Z,93.40
2019-01-27T08:36:38.369Z,93.40
2019-01-27T08:39:14.613Z,93.40
2019-01-27T08:42:04.882Z,93.40
2019-01-27T08:44:42.379Z,93.40
2019-01-27T08:47:12.132Z,93.40
2019-01-27T08:49:42.320Z,93.30
2019-01-27T08:52:12.229Z,93.40
2019-01-27T08:54:42.356Z,93.30
2019-01-27T08:57:12.093Z,93.40
2019-01-27T08:59:41.849Z,93.30
2019-01-27T09:02:32.188Z,93.20
2019-01-27T09:05:25.608Z,93.50
2019-01-27T09:08:08.269Z,93.50
2019-01-27T09:10:44.837Z,93.30
2019-01-27T09:13:22.153Z,93.40
2019-01-27T09:16:17.706Z,93.40
2019-01-27T09:19:06.816Z,92.80
2019-01-27T09:21:48.913Z,93.20
2019-01-27T09:24:46.921Z,93.20
2019-01-27T09:27:23.742Z,93.20
2019-01-27T09:30:11.254Z,93.20
2019-01-27T09:33:00.302Z,93.20
2019-01-27T09:35:46.054Z,93.20
2019-01-27T09:38:24.705Z,93.20
2019-01-27T09:41:25.833Z,93.30
2019-01-27T09:44:15.723Z,93.20
2019-01-27T09:47:00.497Z,93.20
2019-01-27T09:49:48.211Z,93.20
2019-01-27T09:52:35.492Z,93.30
2019-01-27T09:55:35.459Z,93.20
2019-01-27T09:58:39.701Z,93.20
2019-01-27T10:01:16.449Z,93.20
2019-01-27T10:04:08.029Z,93.30
2019-01-27T10:06:47.122Z,93.20
2019-01-27T10:09:34.676Z,93.20
2019-01-27T10:12:10.493Z,93.10
2019-01-27T10:15:05.065Z,93.10
2019-01-27T10:17:57.443Z,93.10
2019-01-27T10:20:40.658Z,93.30
2019-01-27T10:23:29.527Z,93.00
2019-01-27T10:26:09.578Z,92.90
2019-01-27T10:28:45.649Z,92.90
2019-01-27T10:31:30.978Z,93.00
2019-01-27T10:34:09.717Z,93.10
2019-01-27T10:37:01.464Z,93.10
2019-01-27T10:39:39.149Z,93.10
2019-01-27T10:42:13.771Z,93.00
2019-01-27T10:45:03.458Z,92.60
2019-01-27T10:47:52.426Z,93.10
2019-01-27T10:50:39.985Z,92.70
2019-01-27T10:53:20.903Z,92.80
2019-01-27T10:56:03.555Z,92.80
2019-01-27T10:58:51.289Z,93.10
2019-01-27T11:01:28.569Z,92.80
2019-01-27T11:04:19.985Z,92.80
2019-01-27T11:07:07.267Z,92.60
2019-01-27T11:09:47.049Z,92.70
2019-01-27T11:12:27.008Z,92.80
2019-01-27T11:15:13.206Z,93.10
2019-01-27T11:18:10.816Z,93.00
2019-01-27T11:20:53.073Z,92.90
2019-01-27T11:23:51.009Z,93.00
2019-01-27T11:26:27.724Z,93.00
2019-01-27T11:29:13.673Z,93.20
2019-01-27T11:32:17.944Z,93.00
2019-01-27T11:35:08.753Z,93.40
2019-01-27T11:38:00.275Z,93.50
2019-01-27T11:40:47.189Z,93.40
2019-01-27T11:43:26.730Z,93.30
2019-01-27T11:46:07.390Z,93.30
2019-01-27T11:48:53.874Z,93.40
2019-01-27T11:51:27.900Z,93.30
2019-01-27T11:53:57.517Z,93.30
2019-01-27T11:56:27.199Z,93.10
2019-01-27T11:58:56.825Z,93.20
2019-01-27T12:01:26.509Z,93.00
2019-01-27T12:03:56.133Z,92.90
2019-01-27T12:06:25.735Z,93.20
2019-01-27T12:08:55.343Z,93.20
2019-01-27T12:11:25.012Z,93.30
2019-01-27T12:13:54.630Z,93.30
2019-01-27T12:16:24.317Z,93.10
2019-01-27T12:18:53.942Z,93.10
2019-01-27T12:21:23.553Z,93.40
2019-01-27T12:23:53.165Z,93.30
2019-01-27T12:26:22.932Z,93.30
2019-01-27T12:28:52.528Z,93.20
2019-01-27T12:31:22.246Z,93.40
2019-01-27T12:33:51.865Z,93.30
2019-01-27T12:36:21.477Z,93.30
2019-01-27T12:38:51.540Z,93.50
2019-01-27T12:41:21.285Z,93.70
2019-01-27T12:43:52.015Z,93.50
2019-01-27T12:46:21.649Z,93.20
2019-01-27T12:48:51.536Z,93.30
2019-01-27T12:51:21.151Z,93.10
2019-01-27T12:53:51.865Z,93.20
2019-01-27T12:56:21.477Z,93.40
2019-01-27T12:58:51.596Z,93.30
2019-01-27T13:01:21.334Z,93.30
2019-01-27T13:03:51.577Z,93.60
2019-01-27T13:06:21.400Z,93.40
2019-01-27T13:08:51.570Z,93.20
2019-01-27T13:11:21.419Z,93.10
2019-01-27T13:13:52.013Z,93.10
2019-01-27T13:16:21.725Z,93.20
2019-01-27T13:18:51.577Z,93.20
2019-01-27T13:21:21.189Z,93.10
2019-01-27T13:23:51.589Z,93.10
2019-01-27T13:26:21.209Z,92.80
2019-01-27T13:28:51.632Z,93.40
2019-01-27T13:31:21.337Z,93.10
2019-01-27T13:33:51.584Z,93.10
2019-01-27T13:36:21.200Z,93.10
2019-01-27T13:38:51.816Z,93.20
2019-01-27T13:41:21.693Z,93.30
2019-01-27T13:43:51.624Z,93.20
2019-01-27T13:46:21.320Z,93.30
2019-01-27T13:48:51.147Z,93.40
2019-01-27T13:51:20.756Z,93.30
2019-01-27T13:53:50.358Z,93.00
2019-01-27T13:56:19.964Z,93.60
2019-01-27T13:58:50.052Z,93.20
2019-01-27T14:01:19.826Z,93.10
2019-01-27T14:03:49.517Z,93.00
2019-01-27T14:06:19.252Z,93.00
2019-01-27T14:08:48.846Z,93.10
2019-01-27T14:11:18.553Z,93.20
2019-01-27T14:13:48.234Z,93.40
2019-01-27T14:16:19.234Z,93.00
2019-01-27T14:18:49.059Z,93.20
2019-01-27T14:21:18.841Z,93.10
2019-01-27T14:23:48.449Z,93.20
2019-01-27T14:26:18.139Z,93.10
2019-01-27T14:28:47.766Z,93.40
2019-01-27T14:31:17.781Z,93.30
2019-01-27T14:33:47.709Z,93.40
2019-01-27T14:36:17.547Z,93.30
2019-01-27T14:38:47.160Z,93.30
2019-01-27T14:41:16.777Z,93.30
2019-01-27T14:43:46.527Z,93.20
2019-01-27T14:46:16.147Z,93.10
2019-01-27T14:48:45.760Z,93.20
2019-01-27T14:51:15.359Z,93.30
2019-01-27T14:53:44.980Z,93.30
2019-01-27T14:56:14.586Z,93.20
2019-01-27T14:58:44.197Z,93.20
2019-01-27T15:01:13.910Z,93.00
2019-01-27T15:03:43.525Z,93.30
2019-01-27T15:06:13.213Z,93.40
2019-01-27T15:08:45.947Z,93.20
2019-01-27T15:11:14.262Z,93.00
2019-01-27T15:13:43.925Z,93.00
2019-01-27T15:16:13.651Z,93.00
2019-01-27T15:18:43.382Z,93.00
2019-01-27T15:21:17.541Z,93.00
2019-01-27T15:23:47.469Z,93.20
2019-01-27T15:26:17.071Z,93.30
2019-01-27T15:28:47.053Z,93.20
2019-01-27T15:31:16.813Z,93.20
2019-01-27T15:33:46.428Z,93.30
2019-01-27T15:36:16.087Z,93.20
2019-01-27T15:38:46.846Z,93.40
2019-01-27T15:41:16.456Z,93.40
2019-01-27T15:43:48.717Z,93.40
2019-01-27T15:46:17.699Z,93.50
2019-01-27T15:48:47.385Z,93.60
2019-01-27T15:51:16.997Z,93.60
2019-01-27T15:53:46.858Z,93.50
2019-01-27T15:56:16.455Z,93.40
2019-01-27T15:58:46.332Z,93.30
2019-01-27T16:01:15.959Z,93.30
2019-01-27T16:03:45.565Z,93.40
2019-01-27T16:06:15.181Z,93.30
2019-01-27T16:08:45.030Z,93.30
2019-01-27T16:11:14.638Z,93.20
2019-01-27T16:13:44.271Z,93.20
2019-01-27T16:16:14.300Z,93.30
2019-01-27T16:18:44.032Z,93.40
2019-01-27T16:21:13.816Z,93.50
2019-01-27T16:23:47.044Z,93.50
2019-01-27T16:26:16.931Z,93.60
2019-01-27T16:28:46.528Z,93.50
2019-01-27T16:31:32.711Z,93.70
2019-01-27T16:34:21.415Z,93.80
2019-01-27T16:36:51.802Z,93.80
2019-01-27T16:39:21.697Z,93.70
2019-01-27T16:41:51.312Z,93.70
2019-01-27T16:44:20.935Z,93.60
2019-01-27T16:46:50.880Z,93.70
2019-01-27T16:49:20.821Z,93.60
2019-01-27T16:51:50.621Z,93.50
2019-01-27T16:54:20.311Z,93.50
2019-01-27T16:56:49.991Z,93.50
2019-01-27T16:59:19.592Z,93.60
2019-01-27T17:01:49.213Z,93.70
2019-01-27T17:04:19.119Z,93.70
2019-01-27T17:06:48.740Z,93.70
2019-01-27T17:09:19.366Z,93.60
2019-01-27T17:11:49.320Z,93.80
2019-01-27T17:14:19.137Z,93.50
2019-01-27T17:16:50.140Z,93.50
2019-01-27T17:19:20.149Z,93.50
2019-01-27T17:21:49.883Z,93.50
2019-01-27T17:24:19.673Z,93.50
2019-01-27T17:26:49.575Z,93.50
2019-01-27T17:29:19.436Z,93.50
2019-01-27T17:31:49.094Z,93.50
2019-01-27T17:34:18.766Z,93.40
2019-01-27T17:36:48.539Z,93.30
2019-01-27T17:39:18.353Z,93.30
2019-01-27T17:41:47.978Z,93.50
2019-01-27T17:44:17.706Z,93.50
2019-01-27T17:46:47.585Z,93.50
2019-01-27T17:49:18.018Z,93.70
2019-01-27T17:51:47.718Z,93.60
2019-01-27T17:54:17.332Z,93.80
2019-01-27T17:56:55.031Z,93.80
2019-01-27T17:59:30.261Z,93.80
2019-01-27T18:02:28.267Z,93.60
2019-01-27T18:05:09.321Z,93.70
2019-01-27T18:07:56.726Z,93.90
2019-01-27T18:10:43.054Z,93.90
2019-01-27T18:13:16.102Z,94.00
2019-01-27T18:15:46.110Z,94.10
2019-01-27T18:18:15.730Z,93.90
2019-01-27T18:20:45.343Z,94.60
2019-01-27T18:23:15.159Z,94.30
2019-01-27T18:25:44.907Z,94.00
2019-01-27T18:28:14.649Z,93.60
2019-01-27T18:30:44.321Z,93.60
2019-01-27T18:33:14.369Z,93.60
2019-01-27T18:35:44.180Z,93.60
2019-01-27T18:38:13.802Z,93.60
2019-01-27T18:40:43.937Z,93.70
2019-01-27T18:43:13.671Z,93.50
2019-01-27T18:45:43.676Z,93.70
2019-01-27T18:48:13.293Z,93.60
2019-01-27T18:50:43.144Z,93.70
2019-01-27T18:53:42.714Z,93.70
2019-01-27T18:56:17.020Z,93.70
2019-01-27T18:59:08.658Z,93.60
2019-01-27T19:01:58.372Z,93.60
2019-01-27T19:04:48.049Z,93.40
2019-01-27T19:07:32.337Z,93.60
2019-01-27T19:10:11.336Z,93.50
2019-01-27T19:12:49.561Z,93.60
2019-01-27T19:15:37.327Z,93.90
2019-01-27T19:18:24.904Z,93.60
2019-01-27T19:21:01.441Z,93.60
2019-01-27T19:23:48.029Z,93.50
2019-01-27T19:26:31.536Z,93.60
2019-01-27T19:29:07.603Z,93.70
2019-01-27T19:31:44.269Z,93.60
2019-01-27T19:34:45.276Z,93.50
2019-01-27T19:37:33.980Z,93.50
2019-01-27T19:40:18.521Z,93.50
2019-01-27T19:42:59.729Z,93.70
2019-01-27T19:45:37.465Z,93.50
2019-01-27T19:48:29.225Z,93.50
2019-01-27T19:51:27.081Z,93.60
2019-01-27T19:54:15.044Z,93.70
2019-01-27T19:57:02.025Z,93.50
2019-01-27T19:59:38.289Z,93.70
2019-01-27T20:02:27.705Z,93.60
2019-01-27T20:05:22.000Z,93.70
2019-01-27T20:08:25.987Z,93.70
2019-01-27T20:11:30.185Z,93.60
2019-01-27T20:14:05.109Z,93.50
2019-01-27T20:17:06.247Z,93.70
2019-01-27T20:19:43.452Z,93.50
2019-01-27T20:22:24.627Z,93.50
2019-01-27T20:25:12.333Z,93.50
2019-01-27T20:27:53.746Z,93.50
2019-01-27T20:30:38.721Z,93.50
2019-01-27T20:33:29.115Z,93.50
2019-01-27T20:36:12.866Z,93.50
2019-01-27T20:39:07.368Z,93.50
2019-01-27T20:41:49.965Z,93.50
2019-01-27T20:44:34.512Z,93.50
2019-01-27T20:47:10.689Z,93.70
2019-01-27T20:49:51.852Z,93.70
2019-01-27T20:52:36.018Z,93.60
2019-01-27T20:55:24.924Z,93.60
2019-01-27T20:58:03.584Z,93.80
2019-01-27T21:00:55.300Z,93.90
2019-01-27T21:03:42.989Z,93.80
2019-01-27T21:06:31.685Z,93.70
2019-01-27T21:09:20.508Z,93.80
2019-01-27T21:12:05.136Z,94.10
2019-01-27T21:15:00.047Z,93.80
2019-01-27T21:17:48.780Z,93.80
2019-01-27T21:20:20.961Z,93.70
2019-01-27T21:22:50.645Z,93.80
2019-01-27T21:25:20.826Z,93.70
2019-01-27T21:27:50.474Z,93.60
2019-01-27T21:30:20.252Z,93.50
2019-01-27T21:32:49.896Z,93.40
2019-01-27T21:35:19.594Z,93.60
2019-01-27T21:37:49.220Z,93.70
2019-01-27T21:40:19.726Z,93.60
2019-01-27T21:42:49.432Z,93.60
2019-01-27T21:45:19.370Z,93.50
2019-01-27T21:47:49.059Z,93.70
2019-01-27T21:50:19.417Z,93.30
2019-01-27T21:52:49.096Z,93.60
2019-01-27T21:55:18.797Z,93.60
2019-01-27T21:57:48.509Z,93.50
2019-01-27T22:00:21.293Z,93.50
2019-01-27T22:02:51.489Z,93.80
2019-01-27T22:05:21.250Z,93.70
2019-01-27T22:07:51.117Z,93.60
2019-01-27T22:10:20.796Z,93.60
2019-01-27T22:12:50.417Z,93.50
2019-01-27T22:15:20.060Z,93.30
2019-01-27T22:17:50.661Z,93.20
2019-01-27T22:20:20.637Z,93.20
2019-01-27T22:22:50.901Z,93.20
2019-01-27T22:25:20.527Z,93.20
2019-01-27T22:27:50.368Z,93.20
2019-01-27T22:30:20.826Z,93.00
2019-01-27T22:32:50.760Z,93.00
2019-01-27T22:35:20.662Z,93.10
2019-01-27T22:37:50.353Z,92.90
2019-01-27T22:40:20.049Z,92.80
2019-01-27T22:42:49.663Z,92.90
2019-01-27T22:45:19.321Z,92.70
2019-01-27T22:47:48.999Z,93.10
2019-01-27T22:50:19.203Z,92.80
2019-01-27T22:52:48.939Z,93.00
2019-01-27T22:55:18.805Z,92.70
2019-01-27T22:57:48.462Z,92.90
2019-01-27T23:00:28.316Z,92.80
2019-01-27T23:02:59.557Z,92.90
2019-01-27T23:05:29.172Z,92.60
2019-01-27T23:07:58.893Z,92.60
2019-01-27T23:10:28.584Z,92.50
2019-01-27T23:12:58.289Z,92.60
2019-01-27T23:15:28.027Z,92.60
2019-01-27T23:17:57.642Z,92.20
2019-01-27T23:20:27.285Z,92.80
2019-01-27T23:22:56.898Z,92.40
2019-01-27T23:25:27.017Z,92.30
2019-01-27T23:27:56.702Z,92.30
2019-01-27T23:30:26.682Z,92.40
2019-01-27T23:32:56.280Z,92.10
2019-01-27T23:35:26.186Z,92.20
2019-01-27T23:37:56.127Z,92.20
2019-01-27T23:40:25.812Z,92.00
2019-01-27T23:42:55.426Z,91.90
2019-01-27T23:45:25.125Z,92.30
2019-01-27T23:47:54.733Z,92.20
2019-01-27T23:50:24.348Z,92.00
2019-01-27T23:52:53.957Z,91.90
2019-01-27T23:55:23.657Z,92.30
2019-01-27T23:57:53.269Z,92.30
